sensor_id;sensor_type;location;lat;lon;timestamp;pressure;altitude;pressure_sealevel;temperature;humidity
76732;BME280;65656;51.130;13.658;2023-12-22T00:02:47;96654.69;;;3.77;100.00
76732;BME280;65656;51.130;13.658;2023-12-22T00:06:49;96650.09;;;3.78;100.00
76732;BME280;65656;51.130;13.658;2023-12-22T00:10:51;96625.47;;;3.69;100.00
76732;BME280;65656;51.130;13.658;2023-12-22T00:14:54;96640.91;;;3.74;100.00
76732;BME280;65656;51.130;13.658;2023-12-22T00:18:56;96654.69;;;3.72;100.00
76732;BME280;65656;51.130;13.658;2023-12-22T00:22:58;96657.41;;;3.77;100.00
76732;BME280;65656;51.130;13.658;2023-12-22T00:26:59;96654.69;;;3.72;100.00
76732;BME280;65656;51.130;13.658;2023-12-22T00:31:02;96647.09;;;3.84;98.95
76732;BME280;65656;51.130;13.658;2023-12-22T00:35:05;96647.66;;;3.81;99.53
76732;BME280;65656;51.130;13.658;2023-12-22T00:39:06;96649.81;;;3.79;98.58
76732;BME280;65656;51.130;13.658;2023-12-22T00:43:08;96651.44;;;3.80;99.35
76732;BME280;65656;51.130;13.658;2023-12-22T00:47:11;96646.56;;;3.77;98.80
76732;BME280;65656;51.130;13.658;2023-12-22T00:51:12;96644.94;;;3.76;100.00
76732;BME280;65656;51.130;13.658;2023-12-22T00:55:14;96650.09;;;3.83;97.62
76732;BME280;65656;51.130;13.658;2023-12-22T00:59:16;96643.53;;;3.89;97.28
76732;BME280;65656;51.130;13.658;2023-12-22T01:03:19;96680.13;;;3.91;97.38
76732;BME280;65656;51.130;13.658;2023-12-22T01:07:20;96683.94;;;3.90;97.65
76732;BME280;65656;51.130;13.658;2023-12-22T01:11:22;96657.09;;;3.89;98.27
76732;BME280;65656;51.130;13.658;2023-12-22T01:15:23;96676.31;;;3.92;99.50
76732;BME280;65656;51.130;13.658;2023-12-22T01:19:26;96686.91;;;3.84;100.00
76732;BME280;65656;51.130;13.658;2023-12-22T01:23:28;96691.53;;;3.78;100.00
76732;BME280;65656;51.130;13.658;2023-12-22T01:27:30;96696.94;;;3.78;100.00
76732;BME280;65656;51.130;13.658;2023-12-22T01:31:31;96711.84;;;3.71;100.00
76732;BME280;65656;51.130;13.658;2023-12-22T01:35:34;96709.16;;;3.60;100.00
76732;BME280;65656;51.130;13.658;2023-12-22T01:39:36;96730.53;;;3.62;100.00
76732;BME280;65656;51.130;13.658;2023-12-22T01:43:37;96721.59;;;3.56;100.00
76732;BME280;65656;51.130;13.658;2023-12-22T01:47:39;96720.53;;;3.52;100.00
76732;BME280;65656;51.130;13.658;2023-12-22T01:51:42;96722.69;;;3.30;100.00
76732;BME280;65656;51.130;13.658;2023-12-22T01:55:45;96738.59;;;3.06;100.00
76732;BME280;65656;51.130;13.658;2023-12-22T01:59:48;96733.94;;;2.86;100.00
76732;BME280;65656;51.130;13.658;2023-12-22T02:03:51;96776.91;;;2.72;100.00
76732;BME280;65656;51.130;13.658;2023-12-22T02:07:54;96733.34;;;2.69;100.00
76732;BME280;65656;51.130;13.658;2023-12-22T02:11:56;96751.97;;;2.60;100.00
76732;BME280;65656;51.130;13.658;2023-12-22T02:16:01;96764.41;;;2.61;100.00
76732;BME280;65656;51.130;13.658;2023-12-22T02:20:07;96747.69;;;2.69;100.00
76732;BME280;65656;51.130;13.658;2023-12-22T02:24:10;96752.59;;;2.72;100.00
76732;BME280;65656;51.130;13.658;2023-12-22T02:28:15;96737.97;;;2.78;100.00
76732;BME280;65656;51.130;13.658;2023-12-22T02:32:22;96751.53;;;2.84;100.00
76732;BME280;65656;51.130;13.658;2023-12-22T02:36:25;96755.81;;;2.79;100.00
76732;BME280;65656;51.130;13.658;2023-12-22T02:40:29;96752.31;;;2.74;100.00
76732;BME280;65656;51.130;13.658;2023-12-22T02:44:31;96747.97;;;2.78;100.00
76732;BME280;65656;51.130;13.658;2023-12-22T02:48:33;96740.97;;;2.87;100.00
76732;BME280;65656;51.130;13.658;2023-12-22T02:52:35;96742.88;;;2.82;100.00
76732;BME280;65656;51.130;13.658;2023-12-22T02:56:38;96739.09;;;2.93;100.00
76732;BME280;65656;51.130;13.658;2023-12-22T03:00:39;96726.13;;;2.90;100.00
76732;BME280;65656;51.130;13.658;2023-12-22T03:04:41;96734.22;;;2.95;100.00
76732;BME280;65656;51.130;13.658;2023-12-22T03:08:43;96713.72;;;3.04;100.00
76732;BME280;65656;51.130;13.658;2023-12-22T03:12:45;96720.47;;;2.96;100.00
76732;BME280;65656;51.130;13.658;2023-12-22T03:16:47;96726.66;;;2.92;100.00
76732;BME280;65656;51.130;13.658;2023-12-22T03:20:49;96707.72;;;2.87;100.00
76732;BME280;65656;51.130;13.658;2023-12-22T03:24:50;96712.59;;;2.90;100.00
76732;BME280;65656;51.130;13.658;2023-12-22T03:28:53;96715.88;;;2.97;100.00
76732;BME280;65656;51.130;13.658;2023-12-22T03:32:55;96708.03;;;3.00;100.00
76732;BME280;65656;51.130;13.658;2023-12-22T03:36:57;96708.84;;;3.11;100.00
76732;BME280;65656;51.130;13.658;2023-12-22T03:40:58;96714.28;;;3.21;100.00
76732;BME280;65656;51.130;13.658;2023-12-22T03:45:01;96708.06;;;3.21;100.00
76732;BME280;65656;51.130;13.658;2023-12-22T03:49:03;96709.94;;;3.25;100.00
76732;BME280;65656;51.130;13.658;2023-12-22T03:53:05;96720.25;;;3.39;99.62
76732;BME280;65656;51.130;13.658;2023-12-22T03:57:07;96737.56;;;3.38;100.00
76732;BME280;65656;51.130;13.658;2023-12-22T04:01:14;96718.63;;;3.38;98.06
76732;BME280;65656;51.130;13.658;2023-12-22T04:05:16;96701.56;;;3.42;96.84
76732;BME280;65656;51.130;13.658;2023-12-22T04:09:17;96714.56;;;3.45;94.92
76732;BME280;65656;51.130;13.658;2023-12-22T04:13:19;96690.72;;;3.42;94.44
76732;BME280;65656;51.130;13.658;2023-12-22T04:17:22;96700.75;;;3.47;95.03
76732;BME280;65656;51.130;13.658;2023-12-22T04:21:23;96692.63;;;3.42;94.99
76732;BME280;65656;51.130;13.658;2023-12-22T04:25:25;96713.22;;;3.38;95.22
76732;BME280;65656;51.130;13.658;2023-12-22T04:29:26;96709.94;;;3.41;96.43
76732;BME280;65656;51.130;13.658;2023-12-22T04:33:29;96744.03;;;3.42;95.63
76732;BME280;65656;51.130;13.658;2023-12-22T04:37:31;96741.34;;;3.31;97.07
76732;BME280;65656;51.130;13.658;2023-12-22T04:41:32;96725.91;;;3.32;98.48
76732;BME280;65656;51.130;13.658;2023-12-22T04:45:34;96725.09;;;3.21;98.81
76732;BME280;65656;51.130;13.658;2023-12-22T04:49:37;96714.28;;;3.21;98.97
76732;BME280;65656;51.130;13.658;2023-12-22T04:53:39;96718.59;;;3.17;99.19
76732;BME280;65656;51.130;13.658;2023-12-22T04:57:41;96710.50;;;3.12;99.37
76732;BME280;65656;51.130;13.658;2023-12-22T05:01:42;96714.03;;;3.28;99.10
76732;BME280;65656;51.130;13.658;2023-12-22T05:05:45;96714.28;;;3.21;100.00
76732;BME280;65656;51.130;13.658;2023-12-22T05:09:47;96720.22;;;3.08;100.00
76732;BME280;65656;51.130;13.658;2023-12-22T05:13:48;96716.41;;;2.99;100.00
76732;BME280;65656;51.130;13.658;2023-12-22T05:17:50;96726.66;;;2.92;100.00
76732;BME280;65656;51.130;13.658;2023-12-22T05:21:53;96712.31;;;2.86;100.00
76732;BME280;65656;51.130;13.658;2023-12-22T05:25:55;96721.25;;;2.82;100.00
76732;BME280;65656;51.130;13.658;2023-12-22T05:29:57;96733.66;;;2.77;100.00
76732;BME280;65656;51.130;13.658;2023-12-22T05:33:58;96720.13;;;2.77;100.00
76732;BME280;65656;51.130;13.658;2023-12-22T05:38:01;96714.72;;;2.67;100.00
76732;BME280;65656;51.130;13.658;2023-12-22T05:42:03;96710.66;;;2.65;100.00
76732;BME280;65656;51.130;13.658;2023-12-22T05:46:05;96703.31;;;2.55;100.00
76732;BME280;65656;51.130;13.658;2023-12-22T05:50:08;96706.56;;;2.62;100.00
76732;BME280;65656;51.130;13.658;2023-12-22T05:54:11;96737.66;;;2.60;100.00
76732;BME280;65656;51.130;13.658;2023-12-22T05:58:12;96727.69;;;2.65;100.00
76732;BME280;65656;51.130;13.658;2023-12-22T06:02:14;96738.50;;;2.70;100.00
76732;BME280;65656;51.130;13.658;2023-12-22T06:06:15;96744.38;;;2.52;100.00
76732;BME280;65656;51.130;13.658;2023-12-22T06:10:18;96743.84;;;2.55;100.00
76732;BME280;65656;51.130;13.658;2023-12-22T06:14:20;96769.22;;;2.49;100.00
76732;BME280;65656;51.130;13.658;2023-12-22T06:18:21;96737.88;;;2.48;100.00
76732;BME280;65656;51.130;13.658;2023-12-22T06:22:23;96731.44;;;2.64;100.00
76732;BME280;65656;51.130;13.658;2023-12-22T06:26:26;96754.16;;;2.58;100.00
76732;BME280;65656;51.130;13.658;2023-12-22T06:30:27;96744.94;;;2.54;100.00
76732;BME280;65656;51.130;13.658;2023-12-22T06:34:29;96737.34;;;2.51;100.00
76732;BME280;65656;51.130;13.658;2023-12-22T06:38:31;96742.78;;;2.61;100.00
76732;BME280;65656;51.130;13.658;2023-12-22T06:42:34;96748.75;;;2.58;100.00
76732;BME280;65656;51.130;13.658;2023-12-22T06:46:35;96739.56;;;2.59;100.00
76732;BME280;65656;51.130;13.658;2023-12-22T06:50:37;96747.16;;;2.67;100.00
76732;BME280;65656;51.130;13.658;2023-12-22T06:54:39;96753.59;;;2.61;100.00
76732;BME280;65656;51.130;13.658;2023-12-22T06:58:42;96734.34;;;2.47;100.00
76732;BME280;65656;51.130;13.658;2023-12-22T07:02:44;96728.69;;;2.49;100.00
76732;BME280;65656;51.130;13.658;2023-12-22T07:06:45;96728.13;;;2.42;100.00
76732;BME280;65656;51.130;13.658;2023-12-22T07:10:47;96754.09;;;2.48;100.00
76732;BME280;65656;51.130;13.658;2023-12-22T07:14:50;96774.63;;;2.44;100.00
76732;BME280;65656;51.130;13.658;2023-12-22T07:18:52;96755.19;;;2.52;100.00
76732;BME280;65656;51.130;13.658;2023-12-22T07:22:53;96751.94;;;2.50;100.00
76732;BME280;65656;51.130;13.658;2023-12-22T07:26:56;96781.19;;;2.58;100.00
76732;BME280;65656;51.130;13.658;2023-12-22T07:30:59;96794.13;;;2.56;100.00
76732;BME280;65656;51.130;13.658;2023-12-22T07:35:02;96796.81;;;2.51;100.00
76732;BME280;65656;51.130;13.658;2023-12-22T07:39:03;96795.22;;;2.60;100.00
76732;BME280;65656;51.130;13.658;2023-12-22T07:43:05;96810.91;;;2.58;100.00
76732;BME280;65656;51.130;13.658;2023-12-22T07:47:08;96840.50;;;2.38;100.00
76732;BME280;65656;51.130;13.658;2023-12-22T07:51:09;96837.66;;;2.12;100.00
76732;BME280;65656;51.130;13.658;2023-12-22T07:55:11;96863.72;;;1.97;100.00
76732;BME280;65656;51.130;13.658;2023-12-22T07:59:12;96870.28;;;1.79;100.00
76732;BME280;65656;51.130;13.658;2023-12-22T08:03:32;96909.97;;;1.02;100.00
76732;BME280;65656;51.130;13.658;2023-12-22T08:07:33;96872.66;;;0.34;100.00
76732;BME280;65656;51.130;13.658;2023-12-22T08:11:35;96924.00;;;0.10;100.00
76732;BME280;65656;51.130;13.658;2023-12-22T08:15:37;96919.06;;;-0.10;100.00
76732;BME280;65656;51.130;13.658;2023-12-22T08:19:39;96895.75;;;-0.21;100.00
76732;BME280;65656;51.130;13.658;2023-12-22T08:23:45;96886.09;;;-0.17;100.00
76732;BME280;65656;51.130;13.658;2023-12-22T08:27:54;96898.69;;;-0.06;100.00
76732;BME280;65656;51.130;13.658;2023-12-22T08:31:56;96901.94;;;-0.04;100.00
76732;BME280;65656;51.130;13.658;2023-12-22T08:35:59;96920.03;;;-0.16;100.00
76732;BME280;65656;51.130;13.658;2023-12-22T08:40:00;96931.91;;;-0.45;100.00
76732;BME280;65656;51.130;13.658;2023-12-22T08:44:03;96917.84;;;-0.47;100.00
76732;BME280;65656;51.130;13.658;2023-12-22T08:48:06;96948.38;;;-0.42;100.00
76732;BME280;65656;51.130;13.658;2023-12-22T08:52:10;96935.72;;;-0.41;100.00
76732;BME280;65656;51.130;13.658;2023-12-22T08:56:11;96949.03;;;-0.35;100.00
76732;BME280;65656;51.130;13.658;2023-12-22T09:00:14;96960.31;;;-0.21;100.00
76732;BME280;65656;51.130;13.658;2023-12-22T09:04:16;96953.34;;;-0.05;100.00
76732;BME280;65656;51.130;13.658;2023-12-22T09:08:19;96956.63;;;0.14;100.00
76732;BME280;65656;51.130;13.658;2023-12-22T09:12:20;96971.97;;;0.30;100.00
76732;BME280;65656;51.130;13.658;2023-12-22T09:16:22;96988.59;;;0.61;100.00
76732;BME280;65656;51.130;13.658;2023-12-22T09:20:24;97002.16;;;0.66;100.00
76732;BME280;65656;51.130;13.658;2023-12-22T09:24:27;96975.94;;;0.61;100.00
76732;BME280;65656;51.130;13.658;2023-12-22T09:28:29;96992.94;;;0.62;100.00
76732;BME280;65656;51.130;13.658;2023-12-22T09:32:30;96971.97;;;0.64;100.00
76732;BME280;65656;51.130;13.658;2023-12-22T09:36:33;96991.53;;;0.76;100.00
76732;BME280;65656;51.130;13.658;2023-12-22T09:40:36;96972.06;;;0.91;100.00
76732;BME280;65656;51.130;13.658;2023-12-22T09:44:38;96980.72;;;1.09;100.00
76732;BME280;65656;51.130;13.658;2023-12-22T09:48:40;96987.56;;;1.17;100.00
76732;BME280;65656;51.130;13.658;2023-12-22T09:52:43;96983.41;;;1.31;100.00
76732;BME280;65656;51.130;13.658;2023-12-22T09:56:47;96972.06;;;1.51;100.00
76732;BME280;65656;51.130;13.658;2023-12-22T10:00:49;96974.84;;;1.61;100.00
76732;BME280;65656;51.130;13.658;2023-12-22T10:04:55;96985.72;;;1.66;100.00
76732;BME280;65656;51.130;13.658;2023-12-22T10:08:56;96972.59;;;1.75;100.00
76732;BME280;65656;51.130;13.658;2023-12-22T10:12:59;96972.00;;;1.95;100.00
76732;BME280;65656;51.130;13.658;2023-12-22T10:17:01;97008.47;;;1.98;100.00
76732;BME280;65656;51.130;13.658;2023-12-22T10:21:03;97012.22;;;2.23;100.00
76732;BME280;65656;51.130;13.658;2023-12-22T10:25:05;97042.09;;;2.39;100.00
76732;BME280;65656;51.130;13.658;2023-12-22T10:29:09;97021.00;;;2.36;100.00
76732;BME280;65656;51.130;13.658;2023-12-22T10:33:11;97033.38;;;2.32;100.00
76732;BME280;65656;51.130;13.658;2023-12-22T10:37:12;97028.75;;;2.27;100.00
76732;BME280;65656;51.130;13.658;2023-12-22T10:41:15;97024.06;;;2.44;100.00
76732;BME280;65656;51.130;13.658;2023-12-22T10:45:19;97001.97;;;2.53;100.00
76732;BME280;65656;51.130;13.658;2023-12-22T10:49:22;97022.25;;;2.55;100.00
76732;BME280;65656;51.130;13.658;2023-12-22T10:53:24;97028.72;;;2.54;100.00
76732;BME280;65656;51.130;13.658;2023-12-22T10:57:26;96995.09;;;2.40;100.00
76732;BME280;65656;51.130;13.658;2023-12-22T11:01:30;97005.13;;;2.12;100.00
76732;BME280;65656;51.130;13.658;2023-12-22T11:05:33;97049.53;;;0.95;100.00
76732;BME280;65656;51.130;13.658;2023-12-22T11:09:35;97040.38;;;0.96;100.00
76732;BME280;65656;51.130;13.658;2023-12-22T11:13:37;97029.41;;;1.03;100.00
76732;BME280;65656;51.130;13.658;2023-12-22T11:17:41;97010.28;;;1.04;100.00
76732;BME280;65656;51.130;13.658;2023-12-22T11:21:44;96994.31;;;1.20;100.00
76732;BME280;65656;51.130;13.658;2023-12-22T11:25:50;96994.41;;;1.25;100.00
76732;BME280;65656;51.130;13.658;2023-12-22T11:29:54;96953.78;;;1.36;100.00
76732;BME280;65656;51.130;13.658;2023-12-22T11:33:58;96974.50;;;1.53;100.00
76732;BME280;65656;51.130;13.658;2023-12-22T11:38:13;97001.28;;;1.59;100.00
76732;BME280;65656;51.130;13.658;2023-12-22T11:42:18;96985.53;;;1.73;100.00
76732;BME280;65656;51.130;13.658;2023-12-22T11:46:20;96980.94;;;1.74;100.00
76732;BME280;65656;51.130;13.658;2023-12-22T11:50:29;96968.63;;;1.83;100.00
76732;BME280;65656;51.130;13.658;2023-12-22T11:54:44;96970.31;;;1.89;100.00
76732;BME280;65656;51.130;13.658;2023-12-22T11:58:46;96978.91;;;1.86;100.00
76732;BME280;65656;51.130;13.658;2023-12-22T12:02:54;96966.59;;;1.95;100.00
76732;BME280;65656;51.130;13.658;2023-12-22T12:06:58;96956.91;;;1.99;100.00
76732;BME280;65656;51.130;13.658;2023-12-22T12:11:00;96941.50;;;2.27;100.00
76732;BME280;65656;51.130;13.658;2023-12-22T12:15:07;96949.25;;;2.55;100.00
76732;BME280;65656;51.130;13.658;2023-12-22T12:19:09;96951.53;;;2.68;100.00
76732;BME280;65656;51.130;13.658;2023-12-22T12:23:15;96946.66;;;2.70;100.00
76732;BME280;65656;51.130;13.658;2023-12-22T12:27:18;96922.88;;;2.67;100.00
76732;BME280;65656;51.130;13.658;2023-12-22T12:31:35;96935.34;;;2.73;100.00
76732;BME280;65656;51.130;13.658;2023-12-22T12:35:38;96932.06;;;2.66;100.00
76732;BME280;65656;51.130;13.658;2023-12-22T12:39:48;96945.31;;;2.68;100.00
76732;BME280;65656;51.130;13.658;2023-12-22T12:43:51;96957.78;;;2.37;100.00
76732;BME280;65656;51.130;13.658;2023-12-22T12:47:55;96957.22;;;2.03;100.00
76732;BME280;65656;51.130;13.658;2023-12-22T12:51:57;96939.44;;;1.80;100.00
76732;BME280;65656;51.130;13.658;2023-12-22T12:56:00;96946.31;;;1.65;100.00
76732;BME280;65656;51.130;13.658;2023-12-22T13:00:03;96947.25;;;1.54;100.00
76732;BME280;65656;51.130;13.658;2023-12-22T13:04:05;96963.44;;;1.54;100.00
76732;BME280;65656;51.130;13.658;2023-12-22T13:08:07;96962.41;;;1.33;100.00
76732;BME280;65656;51.130;13.658;2023-12-22T13:12:10;96952.25;;;1.19;100.00
76732;BME280;65656;51.130;13.658;2023-12-22T13:16:12;96954.34;;;1.17;100.00
76732;BME280;65656;51.130;13.658;2023-12-22T13:20:14;96959.63;;;1.06;100.00
76732;BME280;65656;51.130;13.658;2023-12-22T13:24:16;96978.88;;;1.15;100.00
76732;BME280;65656;51.130;13.658;2023-12-22T13:28:26;96999.06;;;0.74;100.00
76732;BME280;65656;51.130;13.658;2023-12-22T13:32:28;96992.44;;;0.31;100.00
76732;BME280;65656;51.130;13.658;2023-12-22T13:36:33;96978.63;;;-0.06;100.00
76732;BME280;65656;51.130;13.658;2023-12-22T13:40:36;97005.19;;;-0.10;100.00
76732;BME280;65656;51.130;13.658;2023-12-22T13:44:43;96993.38;;;-0.09;100.00
76732;BME280;65656;51.130;13.658;2023-12-22T13:48:45;96996.88;;;-0.08;100.00
76732;BME280;65656;51.130;13.658;2023-12-22T13:52:47;97002.03;;;-0.07;100.00
76732;BME280;65656;51.130;13.658;2023-12-22T13:56:48;96997.88;;;0.03;100.00
76732;BME280;65656;51.130;13.658;2023-12-22T14:00:55;96991.19;;;0.05;100.00
76732;BME280;65656;51.130;13.658;2023-12-22T14:04:58;97000.91;;;0.06;100.00
76732;BME280;65656;51.130;13.658;2023-12-22T14:09:00;96999.13;;;0.12;100.00
76732;BME280;65656;51.130;13.658;2023-12-22T14:13:02;97022.84;;;0.15;100.00
76732;BME280;65656;51.130;13.658;2023-12-22T14:17:05;97017.47;;;0.15;100.00
76732;BME280;65656;51.130;13.658;2023-12-22T14:21:07;97013.25;;;0.19;100.00
76732;BME280;65656;51.130;13.658;2023-12-22T14:25:11;97005.59;;;0.27;100.00
76732;BME280;65656;51.130;13.658;2023-12-22T14:29:13;97008.53;;;0.26;100.00
76732;BME280;65656;51.130;13.658;2023-12-22T14:33:16;96983.63;;;0.19;100.00
76732;BME280;65656;51.130;13.658;2023-12-22T14:37:18;96991.81;;;0.24;100.00
76732;BME280;65656;51.130;13.658;2023-12-22T14:41:20;96997.75;;;0.26;100.00
76732;BME280;65656;51.130;13.658;2023-12-22T14:45:21;96982.25;;;0.33;100.00
76732;BME280;65656;51.130;13.658;2023-12-22T14:49:24;97018.91;;;0.34;100.00
76732;BME280;65656;51.130;13.658;2023-12-22T14:53:26;97003.97;;;0.43;100.00
76732;BME280;65656;51.130;13.658;2023-12-22T14:57:27;97010.16;;;0.44;100.00
76732;BME280;65656;51.130;13.658;2023-12-22T15:01:29;97018.50;;;0.42;100.00
76732;BME280;65656;51.130;13.658;2023-12-22T15:05:32;97012.13;;;0.48;100.00
76732;BME280;65656;51.130;13.658;2023-12-22T15:09:38;97019.25;;;0.54;100.00
76732;BME280;65656;51.130;13.658;2023-12-22T15:13:40;97012.78;;;0.55;100.00
76732;BME280;65656;51.130;13.658;2023-12-22T15:17:42;97010.00;;;0.67;100.00
76732;BME280;65656;51.130;13.658;2023-12-22T15:21:46;97013.91;;;0.76;100.00
76732;BME280;65656;51.130;13.658;2023-12-22T15:25:50;97004.44;;;0.74;100.00
76732;BME280;65656;51.130;13.658;2023-12-22T15:29:52;97000.34;;;0.88;100.00
76732;BME280;65656;51.130;13.658;2023-12-22T15:33:53;96985.56;;;0.91;100.00
76732;BME280;65656;51.130;13.658;2023-12-22T15:37:56;96979.00;;;1.03;100.00
76732;BME280;65656;51.130;13.658;2023-12-22T15:41:58;96975.91;;;1.17;100.00
76732;BME280;65656;51.130;13.658;2023-12-22T15:46:03;96967.44;;;1.25;100.00
76732;BME280;65656;51.130;13.658;2023-12-22T15:50:06;96975.09;;;1.33;100.00
76732;BME280;65656;51.130;13.658;2023-12-22T15:54:09;96997.53;;;1.38;100.00
76732;BME280;65656;51.130;13.658;2023-12-22T15:58:10;96986.00;;;1.43;100.00
76732;BME280;65656;51.130;13.658;2023-12-22T16:02:12;96989.78;;;1.47;100.00
76732;BME280;65656;51.130;13.658;2023-12-22T16:06:14;96963.03;;;1.41;100.00
76732;BME280;65656;51.130;13.658;2023-12-22T16:10:17;96958.75;;;1.45;100.00
76732;BME280;65656;51.130;13.658;2023-12-22T16:14:19;96975.81;;;1.50;100.00
76732;BME280;65656;51.130;13.658;2023-12-22T16:18:20;96980.59;;;1.43;100.00
76732;BME280;65656;51.130;13.658;2023-12-22T16:22:22;96989.56;;;1.27;100.00
76732;BME280;65656;51.130;13.658;2023-12-22T16:26:25;96935.16;;;0.91;100.00
76732;BME280;65656;51.130;13.658;2023-12-22T16:30:26;96953.31;;;0.79;100.00
76732;BME280;65656;51.130;13.658;2023-12-22T16:34:28;96973.41;;;0.88;100.00
76732;BME280;65656;51.130;13.658;2023-12-22T16:38:30;96995.59;;;0.95;100.00
76732;BME280;65656;51.130;13.658;2023-12-22T16:42:32;96989.72;;;0.98;100.00
76732;BME280;65656;51.130;13.658;2023-12-22T16:46:34;97007.03;;;1.02;100.00
76732;BME280;65656;51.130;13.658;2023-12-22T16:50:35;96987.09;;;1.03;100.00
76732;BME280;65656;51.130;13.658;2023-12-22T16:54:37;96988.22;;;1.07;100.00
76732;BME280;65656;51.130;13.658;2023-12-22T16:58:40;97001.34;;;1.21;100.00
76732;BME280;65656;51.130;13.658;2023-12-22T17:02:41;97007.16;;;1.13;100.00
76732;BME280;65656;51.130;13.658;2023-12-22T17:06:46;97007.69;;;1.09;100.00
76732;BME280;65656;51.130;13.658;2023-12-22T17:10:48;96984.66;;;1.02;100.00
76732;BME280;65656;51.130;13.658;2023-12-22T17:14:51;96976.00;;;0.83;100.00
76732;BME280;65656;51.130;13.658;2023-12-22T17:18:53;96958.38;;;0.75;100.00
76732;BME280;65656;51.130;13.658;2023-12-22T17:22:55;96969.19;;;0.59;100.00
76732;BME280;65656;51.130;13.658;2023-12-22T17:26:56;96970.81;;;0.43;100.00
76732;BME280;65656;51.130;13.658;2023-12-22T17:30:59;96990.25;;;0.28;100.00
76732;BME280;65656;51.130;13.658;2023-12-22T17:35:01;96994.81;;;0.11;100.00
76732;BME280;65656;51.130;13.658;2023-12-22T17:39:02;96981.25;;;0.06;100.00
76732;BME280;65656;51.130;13.658;2023-12-22T17:43:04;96984.81;;;-0.06;100.00
76732;BME280;65656;51.130;13.658;2023-12-22T17:47:07;96991.56;;;-0.20;100.00
76732;BME280;65656;51.130;13.658;2023-12-22T17:51:09;96994.88;;;-0.30;100.00
76732;BME280;65656;51.130;13.658;2023-12-22T17:55:10;96992.22;;;-0.41;100.00
76732;BME280;65656;51.130;13.658;2023-12-22T17:59:12;96994.16;;;-0.53;100.00
76732;BME280;65656;51.130;13.658;2023-12-22T18:03:16;97012.06;;;-0.59;100.00
76732;BME280;65656;51.130;13.658;2023-12-22T18:07:17;97027.81;;;-0.63;100.00
76732;BME280;65656;51.130;13.658;2023-12-22T18:11:19;97017.91;;;-0.62;100.00
76732;BME280;65656;51.130;13.658;2023-12-22T18:15:20;97015.44;;;-0.64;100.00
76732;BME280;65656;51.130;13.658;2023-12-22T18:19:23;97030.38;;;-0.44;100.00
76732;BME280;65656;51.130;13.658;2023-12-22T18:23:25;97024.50;;;-0.41;100.00
76732;BME280;65656;51.130;13.658;2023-12-22T18:27:27;97030.94;;;-0.42;100.00
76732;BME280;65656;51.130;13.658;2023-12-22T18:31:28;97032.00;;;-0.43;100.00
76732;BME280;65656;51.130;13.658;2023-12-22T18:35:31;97054.00;;;-0.46;100.00
76732;BME280;65656;51.130;13.658;2023-12-22T18:39:33;97049.09;;;-0.49;100.00
76732;BME280;65656;51.130;13.658;2023-12-22T18:43:34;97062.53;;;-0.49;100.00
76732;BME280;65656;51.130;13.658;2023-12-22T18:47:36;97059.84;;;-0.49;100.00
76732;BME280;65656;51.130;13.658;2023-12-22T18:51:39;97061.28;;;-0.59;100.00
76732;BME280;65656;51.130;13.658;2023-12-22T18:55:40;97077.91;;;-0.62;100.00
76732;BME280;65656;51.130;13.658;2023-12-22T18:59:42;97071.34;;;-0.66;100.00
76732;BME280;65656;51.130;13.658;2023-12-22T19:03:43;97073.44;;;-0.68;100.00
76732;BME280;65656;51.130;13.658;2023-12-22T19:07:46;97062.91;;;-0.58;100.00
76732;BME280;65656;51.130;13.658;2023-12-22T19:11:48;97043.38;;;-0.65;100.00
76732;BME280;65656;51.130;13.658;2023-12-22T19:15:50;97048.44;;;-0.68;100.00
76732;BME280;65656;51.130;13.658;2023-12-22T19:19:51;97061.06;;;-0.69;100.00
76732;BME280;65656;51.130;13.658;2023-12-22T19:23:54;97032.06;;;-0.67;100.00
76732;BME280;65656;51.130;13.658;2023-12-22T19:27:56;97053.22;;;-0.70;100.00
76732;BME280;65656;51.130;13.658;2023-12-22T19:32:02;97029.25;;;-0.72;100.00
76732;BME280;65656;51.130;13.658;2023-12-22T19:36:04;97038.38;;;-0.73;100.00
76732;BME280;65656;51.130;13.658;2023-12-22T19:40:11;97031.38;;;-0.62;100.00
76732;BME280;65656;51.130;13.658;2023-12-22T19:44:12;97049.81;;;-0.66;100.00
76732;BME280;65656;51.130;13.658;2023-12-22T19:48:14;97050.03;;;-0.56;100.00
76732;BME280;65656;51.130;13.658;2023-12-22T19:52:16;97035.06;;;-0.51;100.00
76732;BME280;65656;51.130;13.658;2023-12-22T19:56:19;97021.03;;;-0.53;100.00
76732;BME280;65656;51.130;13.658;2023-12-22T20:00:21;97037.38;;;-0.43;100.00
76732;BME280;65656;51.130;13.658;2023-12-22T20:04:22;97065.91;;;-0.42;100.00
76732;BME280;65656;51.130;13.658;2023-12-22T20:08:24;97079.47;;;-0.37;100.00
76732;BME280;65656;51.130;13.658;2023-12-22T20:12:27;97081.78;;;-0.29;100.00
76732;BME280;65656;51.130;13.658;2023-12-22T20:16:28;97089.94;;;-0.24;100.00
76732;BME280;65656;51.130;13.658;2023-12-22T20:20:30;97088.69;;;-0.21;100.00
76732;BME280;65656;51.130;13.658;2023-12-22T20:24:32;97071.84;;;-0.29;100.00
76732;BME280;65656;51.130;13.658;2023-12-22T20:28:35;97084.00;;;-0.26;100.00
76732;BME280;65656;51.130;13.658;2023-12-22T20:32:37;97097.94;;;-0.29;100.00
76732;BME280;65656;51.130;13.658;2023-12-22T20:36:38;97089.63;;;-0.28;100.00
76732;BME280;65656;51.130;13.658;2023-12-22T20:40:40;97086.59;;;-0.31;100.00
76732;BME280;65656;51.130;13.658;2023-12-22T20:44:43;97086.06;;;-0.16;100.00
76732;BME280;65656;51.130;13.658;2023-12-22T20:48:44;97118.38;;;-0.16;100.00
76732;BME280;65656;51.130;13.658;2023-12-22T20:52:46;97114.97;;;-0.12;100.00
76732;BME280;65656;51.130;13.658;2023-12-22T20:56:48;97120.84;;;-0.15;100.00
76732;BME280;65656;51.130;13.658;2023-12-22T21:00:51;97131.63;;;-0.15;100.00
76732;BME280;65656;51.130;13.658;2023-12-22T21:04:52;97127.03;;;-0.14;100.00